Airfield :
LOGIN :

Register | Disclaimer

   EN    FR    IT 

 










Legend :    VFR   Marginal VFR   IFR   Intensive IFR   Very Intensive IFR
Visi :
Ceiling :
>= 8 km
>= 3000ft
5 to 8 km
1000 to 3000 ft
1500m to 5 km
500 to 1000 ft
800 to 1500m
200 to 500 ft
< 800m
< 200 ft
Symbols :   Thunderstorms  Fog  Heavy snow  Heavy precipitations  Wind > 20 kt
SIGMETs :     Misc.  Thunderstorms  Icing  Turbulence  Mountain Waves  Volcanic Ashes






- Airport Elevation : 32 ft
- IATA code : LKZ


EGUL - RAF Lakenheath

CURRENT METAR :
  • 282355Z AUTO 22011KT 9999 -RA FEW013 FEW034 SCT055 15/14 A2972 RMK AO2 RAB2256E05RAB15E27RAB29 SLP068 P0000 60008 T01520136 10181 20151 401840087 57008 FZRANO $

EXPIRED METARs :
  • 282339Z AUTO 22011KT 9999 -RA FEW013 SCT023 15/14 A2972 RMK AO2 RAB2256E05RAB15E27RAB29 SLP068 FZRANO $
  • 282315Z AUTO 22012KT 9999 -RA BKN012 BKN018 BKN024 16/14 A2972 RMK AO2 RAB2256E05RAB15 SLP068 FZRANO $
  • 282255Z AUTO 21013KT 9999 BKN010 OVC014 16/14 A2972 RMK AO2 RAE2157RAB02E03RAB04E14RAB34E43 SLP068 P0001 T01550139 FZRANO $
  • 282243Z AUTO 20012KT 9999 BKN010 BKN018 BKN034 15/14 A2973 RMK AO2 RAE2157RAB02E03RAB04E14RAB34E43 CIG 010V014 SLP071 FZRANO $
  • 282214Z AUTO 19010KT 9999 FEW010 BKN018 BKN045 15/14 A2973 RMK AO2 RAE2157RAB02E03RAB04E14 SLP071 FZRANO $
  • 282209Z AUTO 19010KT 9999 -RA FEW010 BKN018 BKN047 15/14 A2973 RMK AO2 RAE2157RAB02E03RAB04 CIG 012V018 SLP071 FZRANO $
  • 282202Z AUTO 19012KT 9999 -RA FEW010 BKN014 BKN047 16/14 A2973 RMK AO2 RAE2157RAB02 CIG 012V018 SLP071 FZRANO $
  • 282136Z AUTO 18008KT 9999 FEW012 BKN023 15/14 A2973 RMK AO2 RAE36 BKN V OVC SLP071 FZRANO $
  • 282130Z AUTO 18010KT 9000 +RA BR FEW012 OVC023 16/14 A2974 RMK AO2 CIG 021 RWY06 SLP074 FZRANO $
  • 282100Z AUTO 20012KT 9999 -RA BKN014 BKN020 BKN029 BKN034 16/14 A2974 RMK AO2 CIG 014V029 CIG 012 RWY06 SLP074 FZRANO $
  • 282055Z AUTO 20013KT 9999 -RA SCT015 BKN023 BKN029 BKN034 16/14 A2974 RMK AO2 RAE03RAB10E20RAB25E26RAB27E38RAB40E41RAB44 CIG 023V085 BKN023 V SCT SLP074 P0000 60000 T01620137 55001 FZRANO $
  • 282027Z AUTO 19013KT 9999 -RA SCT026 SCT044 BKN085 16/13 A2974 RMK AO2 RAE03RAB10E20RAB25E26RAB27 SLP074 FZRANO $
  • 282020Z AUTO 19010KT 9999 FEW025 SCT045 BKN085 17/13 A2974 RMK AO2 RAE03RAB10E20 SLP074 FZRANO $
  • 282010Z AUTO 19013KT 9999 -RA FEW025 SCT045 BKN090 17/14 A2974 RMK AO2 RAE03RAB10 SLP074 FZRANO $
  • 281940Z AUTO 19014G18KT 9999 -RA FEW020 SCT045 17/14 A2974 RMK AO2 RAB02E37RAB40 SLP074 FZRANO $

TAF AMD TAF EGUL
Valid from the 28 at 20:00 until the 29 at 19:00 UTC


282047Z 2820/2919 19012KT 9999 SCT050 QNH2974INS
BECMG 2904/2905 26012KT 9000 BR BKN008 OVC015 QNH2971INS
BECMG 2907/2908 28015G20KT 9999 NSW FEW015 BKN025 QNH2972INS
BECMG 2913/2914 27010G20KT 9000 -SHRA BKN030 OVC046 QNH2973INS
BECMG 2916/2917 28009KT 9999 -RA BKN030 OVC046 QNH2974INS TX18/2913Z TN12/2902Z LAST NO AMDS AFT 2820 NEXT 2905



MET'MAP, your aeronautical weather chart ! - Copyright ORBIFLY December 2007 - Disclaimer

ORBIFLY MET'MAP TEAM :

Programming & Development : Alexandra Zaïnal
Original concept : Baudouin d'Aumeries
Technical & hardware support : Manuel Goepfert
Assistance : Marc-Olivier Méhu




SOURCES & CREDITS :

   NOAA